Flugplatz Schwäbisch Hall-Weckrieden

Für EDTX sind keine METAR/TAF Berichte vorhanden.
Es werden die Flugwettermeldungen vom Flugplatz Adolf Würth in 0 km Entfernung angezeigt.

Bericht für EDTY

vom 01.12. um 09:20 UTC

Wind 14 kt aus 220° in Böen 24 kt

Sichtweite 10 km oder mehr

aufgebrochene Bewölkung in 2900 ft

aufgebrochene Bewölkung in 4100 ft

Temperatur 7.0°C

Taupunkt 3.0°C

Luftfeuchtigkeit 76%

Luftdruck 1001 hPa

EDTY 010920Z 22014G24KT 190V250 9999 BKN029 BKN041 07/03 Q1001

Prognose für EDTY

vom 01.12. um 08:00 UTC

Zwischen 09:00 UTC und 18:00 UTC

Wind 15 kt aus 220° in Böen 25 kt

Sichtweite 10 km oder mehr

gering bewölkt in 1500 ft

aufgebrochene Bewölkung in 3000 ft


Zwischen 12:00 UTC und 16:00 UTC zeitweise mit einer Wahrscheinlichkeit von 40%

Wind 20 kt aus 230° in Böen 30 kt

Regen


Zwischen 16:00 UTC und 18:00 UTC zeitweise mit einer Wahrscheinlichkeit von 40%

Wind 20 kt aus 230° in Böen 35 kt

Regenschauer

aufgebrochene Bewölkung in 1200 ft

TAF EDTY 010800Z 0109/0118 22015G25KT 9999 FEW015 BKN030 PROB40 TEMPO 0112/0116 23020G30KT RA PROB40 TEMPO 0116/0118 23020G35KT SHRA BKN012TCU
Impressum